Time;durP1;ratioP1;P1;durP2;ratioP2;P2;SDS_P1;SDS_P2;PMS_P1;PMS_P2;Temp;Humidity;BMP_temperature;BMP_pressure;BME280_temperature;BME280_humidity;BME280_pressure;Samples;Min_cycle;Max_cycle;Signal;HPM_P1;HPM_P2
2023/11/22 00:02:10;;;;;;;14.23;11.10;;;4.30;99.90;;;;;;5124406;28;20498;-83
2023/11/22 00:04:38;;;;;;;13.50;11.10;;;4.30;99.90;;;;;;5124175;28;20967;-83
2023/11/22 00:07:06;;;;;;;15.63;12.20;;;4.30;99.90;;;;;;5124163;28;20484;-82
2023/11/22 00:09:35;;;;;;;14.10;12.03;;;4.30;99.90;;;;;;5123250;28;20447;-83
2023/11/22 00:12:03;;;;;;;14.70;11.07;;;4.30;99.90;;;;;;5122902;28;20492;-82
2023/11/22 00:14:33;;;;;;;14.23;11.13;;;4.30;99.90;;;;;;5122776;28;20451;-82
2023/11/22 00:17:02;;;;;;;15.73;11.83;;;4.30;99.90;;;;;;5124266;28;20445;-82
2023/11/22 00:19:30;;;;;;;14.10;11.37;;;4.30;99.90;;;;;;5122646;28;20454;-82
2023/11/22 00:21:58;;;;;;;15.07;11.23;;;4.30;99.90;;;;;;5122237;28;20475;-82
2023/11/22 00:24:27;;;;;;;12.37;11.07;;;4.30;99.90;;;;;;5123188;28;20460;-82
2023/11/22 00:26:55;;;;;;;15.33;11.87;;;4.40;99.90;;;;;;5121869;28;20451;-82
2023/11/22 00:29:24;;;;;;;13.03;11.60;;;4.30;99.90;;;;;;5121266;28;20435;-83
2023/11/22 00:31:54;;;;;;;12.30;10.53;;;4.30;99.90;;;;;;5121765;28;20551;-83
2023/11/22 00:34:23;;;;;;;16.03;12.20;;;4.30;99.90;;;;;;5121530;28;20443;-82
2023/11/22 00:36:51;;;;;;;18.70;13.03;;;4.30;99.90;;;;;;5122194;28;20444;-82
2023/11/22 00:39:20;;;;;;;13.90;11.87;;;4.20;99.90;;;;;;5121688;28;20491;-83
2023/11/22 00:41:48;;;;;;;13.93;11.80;;;4.30;99.90;;;;;;5123419;28;20467;-82
2023/11/22 00:44:16;;;;;;;13.23;11.20;;;4.30;99.90;;;;;;5120847;28;20496;-81
2023/11/22 00:46:45;;;;;;;13.47;10.27;;;4.20;99.90;;;;;;5122416;28;20440;-81
2023/11/22 00:49:15;;;;;;;15.40;11.67;;;4.20;99.90;;;;;;5120569;28;20447;-81
2023/11/22 00:51:45;;;;;;;14.40;11.90;;;4.20;99.90;;;;;;5119830;28;20904;-83
2023/11/22 00:54:13;;;;;;;15.43;11.10;;;4.20;99.90;;;;;;5117980;28;20511;-83
2023/11/22 00:56:41;;;;;;;11.83;9.77;;;4.20;99.90;;;;;;5119225;28;20447;-83
2023/11/22 00:59:09;;;;;;;13.27;10.50;;;4.10;99.90;;;;;;5117861;28;20466;-82
2023/11/22 01:01:38;;;;;;;12.40;9.77;;;4.10;99.90;;;;;;5117107;28;20471;-83
2023/11/22 01:04:07;;;;;;;13.77;11.37;;;4.10;99.90;;;;;;5117405;28;20461;-82
2023/11/22 01:06:36;;;;;;;13.47;10.30;;;4.10;99.90;;;;;;5117437;28;20444;-83
2023/11/22 01:09:08;;;;;;;11.23;9.50;;;4.00;99.90;;;;;;5117328;28;20435;-83
2023/11/22 01:11:37;;;;;;;12.87;11.43;;;4.00;99.90;;;;;;5116865;28;20562;-82
2023/11/22 01:14:06;;;;;;;15.27;11.63;;;4.00;99.90;;;;;;5116951;28;20538;-83
2023/11/22 01:16:36;;;;;;;13.53;10.90;;;4.00;99.90;;;;;;5118228;27;20939;-83
2023/11/22 01:19:05;;;;;;;19.30;13.23;;;3.90;99.90;;;;;;5116943;28;20450;-83
2023/11/22 01:21:33;;;;;;;15.00;12.67;;;3.90;99.90;;;;;;5116552;28;20475;-82
2023/11/22 01:24:02;;;;;;;15.40;13.10;;;3.90;99.90;;;;;;5116284;28;20530;-82
2023/11/22 01:26:31;;;;;;;18.37;14.80;;;3.80;99.90;;;;;;5116242;28;20538;-82
2023/11/22 01:29:00;;;;;;;14.40;12.90;;;3.80;99.90;;;;;;5116101;28;20447;-83
2023/11/22 01:31:28;;;;;;;15.77;12.67;;;3.80;99.90;;;;;;5115988;28;20876;-83
2023/11/22 01:33:56;;;;;;;15.00;12.80;;;3.70;99.90;;;;;;5116514;28;20443;-82
2023/11/22 01:36:25;;;;;;;15.10;11.90;;;3.70;99.90;;;;;;5116142;28;20485;-83
2023/11/22 01:38:53;;;;;;;15.23;11.03;;;3.70;99.90;;;;;;5116268;28;20444;-82
2023/11/22 01:41:24;;;;;;;13.80;11.70;;;3.70;99.90;;;;;;5115225;28;20475;-82
2023/11/22 01:43:52;;;;;;;14.03;10.60;;;3.60;99.90;;;;;;5117582;28;20489;-81
2023/11/22 01:46:23;;;;;;;15.27;11.20;;;3.60;99.90;;;;;;5116887;28;20459;-83
2023/11/22 01:48:53;;;;;;;12.60;10.47;;;3.50;99.90;;;;;;5117056;28;20447;-83
2023/11/22 01:51:22;;;;;;;13.60;11.30;;;3.50;99.90;;;;;;5116363;28;20474;-83
2023/11/22 01:53:54;;;;;;;13.13;11.40;;;3.50;99.90;;;;;;5116037;28;20485;-81
2023/11/22 01:56:26;;;;;;;13.23;11.47;;;3.40;99.90;;;;;;5116014;28;20459;-82
2023/11/22 01:58:56;;;;;;;13.93;10.40;;;3.40;99.90;;;;;;5116588;28;20455;-83
2023/11/22 02:01:26;;;;;;;16.17;11.20;;;3.40;99.90;;;;;;5116336;28;20463;-82
2023/11/22 02:03:55;;;;;;;15.27;11.40;;;3.40;99.90;;;;;;5116601;28;20446;-83
2023/11/22 02:06:24;;;;;;;14.20;9.67;;;3.40;99.90;;;;;;5116585;28;20944;-83
2023/11/22 02:08:52;;;;;;;13.33;10.83;;;3.30;99.90;;;;;;5117003;28;20444;-82
2023/11/22 02:11:22;;;;;;;11.73;8.50;;;3.20;99.90;;;;;;5116882;28;20471;-83
2023/11/22 02:13:52;;;;;;;12.70;10.87;;;3.20;99.90;;;;;;5116326;28;20442;-82
2023/11/22 02:16:21;;;;;;;15.70;10.97;;;3.30;99.90;;;;;;5115745;28;20440;-83
2023/11/22 02:18:50;;;;;;;15.90;10.60;;;3.20;99.90;;;;;;5115638;28;20458;-82
2023/11/22 02:21:18;;;;;;;14.90;11.07;;;3.20;99.90;;;;;;5118763;28;20463;-82
2023/11/22 02:23:48;;;;;;;12.47;9.50;;;3.20;99.90;;;;;;5119643;28;20494;-82
2023/11/22 02:26:17;;;;;;;12.50;9.97;;;3.10;99.90;;;;;;5118711;28;20443;-82
2023/11/22 02:28:47;;;;;;;11.13;9.60;;;3.20;99.90;;;;;;5118998;28;20451;-83
2023/11/22 02:31:17;;;;;;;12.50;9.80;;;3.10;99.90;;;;;;5118364;28;20468;-83
2023/11/22 02:33:45;;;;;;;12.03;10.13;;;3.10;99.90;;;;;;5118133;28;20447;-83
2023/11/22 02:36:13;;;;;;;12.50;10.00;;;3.10;99.90;;;;;;5117926;28;20475;-83
2023/11/22 02:38:44;;;;;;;12.87;9.87;;;3.00;99.90;;;;;;5118290;28;20458;-81
2023/11/22 02:41:13;;;;;;;12.37;10.00;;;3.00;99.90;;;;;;5117858;28;20505;-83
2023/11/22 02:43:42;;;;;;;13.13;10.57;;;3.00;99.90;;;;;;5117460;28;20472;-82
2023/11/22 02:46:10;;;;;;;9.93;8.90;;;3.00;99.90;;;;;;5118565;28;20427;-83
2023/11/22 02:48:38;;;;;;;14.77;11.70;;;3.00;99.90;;;;;;5118084;28;20451;-82
2023/11/22 02:51:07;;;;;;;13.30;10.10;;;3.00;99.90;;;;;;5117649;28;20474;-82
2023/11/22 02:53:35;;;;;;;10.33;8.47;;;3.00;99.90;;;;;;5116689;28;20450;-82
2023/11/22 02:56:05;;;;;;;13.07;10.00;;;3.00;99.90;;;;;;5118301;28;20459;-82
2023/11/22 02:58:34;;;;;;;16.60;10.23;;;2.90;99.90;;;;;;5117081;28;20591;-82
2023/11/22 03:01:03;;;;;;;13.70;7.97;;;2.90;99.90;;;;;;5118180;28;21053;-82
2023/11/22 03:03:31;;;;;;;14.30;10.60;;;2.90;99.90;;;;;;5119024;28;20466;-83
2023/11/22 03:05:59;;;;;;;13.37;9.73;;;2.80;99.90;;;;;;5119181;28;20969;-82
2023/11/22 03:08:28;;;;;;;13.33;9.73;;;2.80;99.90;;;;;;5120420;28;20443;-83
2023/11/22 03:10:56;;;;;;;12.77;9.97;;;2.80;99.90;;;;;;5118758;28;20557;-83
2023/11/22 03:13:24;;;;;;;12.40;9.60;;;2.80;99.90;;;;;;5118581;28;20470;-82
2023/11/22 03:15:55;;;;;;;13.50;10.03;;;2.80;99.90;;;;;;5118151;28;20533;-82
2023/11/22 03:18:23;;;;;;;16.10;10.50;;;2.80;99.90;;;;;;5118875;28;20466;-81
2023/11/22 03:20:54;;;;;;;13.80;10.00;;;2.80;99.90;;;;;;5119343;28;20450;-83
2023/11/22 03:23:22;;;;;;;17.30;11.83;;;2.70;99.90;;;;;;5117807;28;20463;-82
2023/11/22 03:25:50;;;;;;;15.20;9.77;;;2.70;99.90;;;;;;5117774;28;20451;-82
2023/11/22 03:28:18;;;;;;;12.43;9.90;;;2.70;99.90;;;;;;5118027;28;20457;-82
2023/11/22 03:30:46;;;;;;;11.80;9.50;;;2.70;99.90;;;;;;5117766;28;20545;-83
2023/11/22 03:33:17;;;;;;;12.30;10.37;;;2.70;99.90;;;;;;5117777;28;20470;-81
2023/11/22 03:35:45;;;;;;;13.93;9.77;;;2.70;99.90;;;;;;5117165;28;20455;-82
2023/11/22 03:38:13;;;;;;;14.60;9.90;;;2.60;99.90;;;;;;5117939;28;20486;-83
2023/11/22 03:40:41;;;;;;;13.27;9.80;;;2.60;99.90;;;;;;5118084;28;20439;-82
2023/11/22 03:43:10;;;;;;;14.47;10.83;;;2.60;99.90;;;;;;5117674;28;20470;-82
2023/11/22 03:45:38;;;;;;;13.20;10.97;;;2.60;99.90;;;;;;5118381;28;21014;-83
2023/11/22 03:48:06;;;;;;;16.10;11.47;;;2.60;99.90;;;;;;5117183;28;20525;-83
2023/11/22 03:50:36;;;;;;;12.70;9.80;;;2.50;99.90;;;;;;5116630;28;20506;-82
2023/11/22 03:53:04;;;;;;;13.50;10.87;;;2.50;99.90;;;;;;5116889;28;20483;-82
2023/11/22 03:55:32;;;;;;;14.63;11.40;;;2.50;99.90;;;;;;5116113;28;20947;-83
2023/11/22 03:58:01;;;;;;;12.50;9.60;;;2.50;99.90;;;;;;5115966;28;20451;-82
2023/11/22 04:00:29;;;;;;;14.10;9.50;;;2.40;99.90;;;;;;5116870;28;20475;-82
2023/11/22 04:02:59;;;;;;;13.70;9.60;;;2.40;99.90;;;;;;5116428;28;20479;-82
2023/11/22 04:05:28;;;;;;;11.93;10.30;;;2.40;99.90;;;;;;5118833;28;20766;-82
2023/11/22 04:07:58;;;;;;;13.40;10.23;;;2.40;99.90;;;;;;5119917;28;20443;-81
2023/11/22 04:10:26;;;;;;;13.37;11.47;;;2.40;99.90;;;;;;5120094;28;20443;-83
2023/11/22 04:12:54;;;;;;;16.67;11.33;;;2.40;99.90;;;;;;5121353;28;20464;-83
2023/11/22 04:15:22;;;;;;;18.83;11.83;;;2.30;99.90;;;;;;5119638;28;20446;-82
2023/11/22 04:17:54;;;;;;;13.77;11.00;;;2.30;99.90;;;;;;5119618;28;20454;-82
2023/11/22 04:20:22;;;;;;;20.70;14.57;;;2.30;99.90;;;;;;5119628;28;20515;-83
2023/11/22 04:22:51;;;;;;;16.43;13.00;;;2.30;99.90;;;;;;5119881;28;20995;-82
2023/11/22 04:25:20;;;;;;;15.30;12.37;;;2.30;99.90;;;;;;5118811;27;20446;-82
2023/11/22 04:27:48;;;;;;;14.70;11.93;;;2.20;99.90;;;;;;5119097;28;20459;-82
2023/11/22 04:30:17;;;;;;;17.57;13.07;;;2.20;99.90;;;;;;5118486;28;20454;-83
2023/11/22 04:32:46;;;;;;;22.50;16.30;;;2.20;99.90;;;;;;5118093;28;20474;-82
2023/11/22 04:35:14;;;;;;;19.70;15.20;;;2.20;99.90;;;;;;5118412;28;20470;-81
2023/11/22 04:37:43;;;;;;;17.77;13.50;;;2.20;99.90;;;;;;5118551;28;20453;-83
2023/11/22 04:40:14;;;;;;;13.70;10.13;;;2.20;99.90;;;;;;5118622;28;20500;-82
2023/11/22 04:42:44;;;;;;;13.50;11.60;;;2.10;99.90;;;;;;5118582;28;20475;-82
2023/11/22 04:45:12;;;;;;;13.53;11.00;;;2.10;99.90;;;;;;5119761;28;20455;-82
2023/11/22 04:47:41;;;;;;;14.57;10.30;;;2.10;99.90;;;;;;5119815;28;20461;-81
2023/11/22 04:50:10;;;;;;;13.60;11.23;;;2.10;99.90;;;;;;5118635;28;20442;-82
2023/11/22 04:52:39;;;;;;;14.50;10.90;;;2.00;99.90;;;;;;5117868;28;20504;-82
2023/11/22 04:55:08;;;;;;;14.53;10.80;;;2.00;99.90;;;;;;5119498;28;20437;-82
2023/11/22 04:57:36;;;;;;;12.93;10.30;;;2.00;99.90;;;;;;5118160;28;20451;-82
2023/11/22 05:00:07;;;;;;;17.20;11.43;;;2.00;99.90;;;;;;5117670;28;20505;-81
2023/11/22 05:02:35;;;;;;;15.47;11.07;;;2.00;99.90;;;;;;5118088;28;20557;-81
2023/11/22 05:05:04;;;;;;;16.97;12.10;;;2.00;99.90;;;;;;5118040;28;20474;-83
2023/11/22 05:07:32;;;;;;;15.93;13.87;;;1.90;99.90;;;;;;5119386;28;20443;-82
2023/11/22 05:10:02;;;;;;;18.13;12.83;;;1.90;99.90;;;;;;5117787;28;20521;-82
2023/11/22 05:12:30;;;;;;;18.70;14.47;;;1.90;99.90;;;;;;5117977;28;20471;-83
2023/11/22 05:14:58;;;;;;;18.07;13.60;;;1.90;99.90;;;;;;5118229;28;20494;-81
2023/11/22 05:17:27;;;;;;;17.83;13.90;;;1.90;99.90;;;;;;5117818;28;20442;-82
2023/11/22 05:19:56;;;;;;;20.93;15.00;;;1.80;99.90;;;;;;5118411;28;20518;-82
2023/11/22 05:22:24;;;;;;;17.90;14.93;;;1.80;99.90;;;;;;5117727;28;20461;-82
2023/11/22 05:24:52;;;;;;;15.67;13.43;;;1.80;99.90;;;;;;5117203;28;20486;-82
2023/11/22 05:27:20;;;;;;;16.40;13.00;;;1.80;99.90;;;;;;5117916;28;20450;-81
2023/11/22 05:29:48;;;;;;;17.37;13.47;;;1.80;99.90;;;;;;5119119;28;20469;-82
2023/11/22 05:32:22;;;;;;;17.27;13.80;;;1.80;99.90;;;;;;5117152;28;20465;-82
2023/11/22 05:34:52;;;;;;;20.60;15.63;;;1.70;99.90;;;;;;5117357;28;20447;-82
2023/11/22 05:37:21;;;;;;;21.00;16.27;;;1.70;99.90;;;;;;5116904;28;20452;-82
2023/11/22 05:39:51;;;;;;;16.30;13.40;;;1.70;99.90;;;;;;5116905;28;20448;-82
2023/11/22 05:42:19;;;;;;;19.83;14.73;;;1.70;99.90;;;;;;5118351;28;20964;-82
2023/11/22 05:44:49;;;;;;;18.20;13.13;;;1.70;99.90;;;;;;5116616;28;20473;-81
2023/11/22 05:47:18;;;;;;;17.63;12.50;;;1.60;99.90;;;;;;5117910;28;20444;-82
2023/11/22 05:49:46;;;;;;;22.97;16.20;;;1.60;99.90;;;;;;5119663;28;20433;-83
2023/11/22 05:52:16;;;;;;;18.50;13.63;;;1.60;99.90;;;;;;5117756;28;20480;-83
2023/11/22 05:54:44;;;;;;;16.53;11.67;;;1.60;99.90;;;;;;5117867;28;20443;-82
2023/11/22 05:57:12;;;;;;;14.73;11.10;;;1.60;99.90;;;;;;5117975;28;20945;-82
2023/11/22 05:59:41;;;;;;;16.60;11.77;;;1.60;99.90;;;;;;5117496;28;20456;-81
2023/11/22 06:02:09;;;;;;;14.37;11.00;;;1.60;99.90;;;;;;5117578;28;20471;-82
2023/11/22 06:04:37;;;;;;;15.00;12.27;;;1.50;99.90;;;;;;5118729;28;20466;-82
2023/11/22 06:07:09;;;;;;;16.03;11.20;;;1.50;99.90;;;;;;5117468;28;20834;-81
2023/11/22 06:09:39;;;;;;;14.90;11.53;;;1.50;99.90;;;;;;5117168;28;20450;-81
2023/11/22 06:12:08;;;;;;;15.90;12.30;;;1.50;99.90;;;;;;5116877;28;20467;-80
2023/11/22 06:14:36;;;;;;;14.83;11.60;;;1.50;99.90;;;;;;5117052;28;20447;-81
2023/11/22 06:17:05;;;;;;;15.20;12.20;;;1.50;99.90;;;;;;5116883;28;20455;-82
2023/11/22 06:19:33;;;;;;;13.70;11.87;;;1.50;99.90;;;;;;5118425;28;20446;-82
2023/11/22 06:22:01;;;;;;;16.23;12.43;;;1.50;99.90;;;;;;5118407;28;20485;-82
2023/11/22 06:24:30;;;;;;;18.90;14.60;;;1.40;99.90;;;;;;5117750;28;20847;-82
2023/11/22 06:27:00;;;;;;;22.80;16.03;;;1.40;99.90;;;;;;5117362;28;20478;-82
2023/11/22 06:29:29;;;;;;;27.90;20.03;;;1.40;99.90;;;;;;5119137;28;20438;-81
2023/11/22 06:31:57;;;;;;;20.07;16.57;;;1.40;99.90;;;;;;5117974;28;20461;-81
2023/11/22 06:34:25;;;;;;;18.87;13.90;;;1.40;99.90;;;;;;5118216;28;20452;-82
2023/11/22 06:36:53;;;;;;;19.43;14.00;;;1.40;99.90;;;;;;5117298;28;21029;-81
2023/11/22 06:39:22;;;;;;;14.93;11.57;;;1.40;99.90;;;;;;5117789;28;20506;-82
2023/11/22 06:41:50;;;;;;;15.97;12.87;;;1.40;99.90;;;;;;5117239;28;20483;-82
2023/11/22 06:44:20;;;;;;;17.47;12.87;;;1.40;99.90;;;;;;5117690;28;20464;-81
2023/11/22 06:46:48;;;;;;;17.03;12.97;;;1.50;99.90;;;;;;5117563;28;20543;-82
2023/11/22 06:49:16;;;;;;;14.90;11.17;;;1.40;99.90;;;;;;5117165;28;20492;-81
2023/11/22 06:51:45;;;;;;;19.00;12.60;;;1.40;99.90;;;;;;5116436;28;20465;-82
2023/11/22 06:54:13;;;;;;;19.70;13.20;;;1.40;99.90;;;;;;5116535;28;20444;-82
2023/11/22 06:56:41;;;;;;;15.20;13.30;;;1.40;99.90;;;;;;5116274;28;20457;-80
2023/11/22 06:59:09;;;;;;;18.30;13.53;;;1.40;99.90;;;;;;5115999;28;20451;-82
2023/11/22 07:01:39;;;;;;;15.30;12.57;;;1.40;99.90;;;;;;5117547;28;20451;-82
2023/11/22 07:04:07;;;;;;;19.53;13.57;;;1.40;99.90;;;;;;5117494;28;20459;-82
2023/11/22 07:06:37;;;;;;;19.03;14.23;;;1.40;99.90;;;;;;5115807;28;20496;-81
2023/11/22 07:09:05;;;;;;;18.70;13.37;;;1.40;99.90;;;;;;5115465;28;20481;-81
2023/11/22 07:11:33;;;;;;;16.00;12.53;;;1.40;99.90;;;;;;5115766;28;20474;-82
2023/11/22 07:14:03;;;;;;;15.97;13.50;;;1.50;99.90;;;;;;5115567;28;20490;-82
2023/11/22 07:16:32;;;;;;;21.00;13.83;;;1.50;99.90;;;;;;5115579;28;20446;-80
2023/11/22 07:19:02;;;;;;;19.90;13.80;;;1.50;99.90;;;;;;5115575;28;20460;-82
2023/11/22 07:21:31;;;;;;;19.20;14.90;;;1.50;99.90;;;;;;5116786;28;20859;-82
2023/11/22 07:23:59;;;;;;;19.10;14.70;;;1.50;99.90;;;;;;5116858;28;20439;-82
2023/11/22 07:26:28;;;;;;;18.40;15.23;;;1.50;99.90;;;;;;5114962;28;20473;-81
2023/11/22 07:28:56;;;;;;;17.43;13.03;;;1.50;99.90;;;;;;5115294;28;20443;-81
2023/11/22 07:31:24;;;;;;;16.30;13.70;;;1.50;99.90;;;;;;5116098;28;20470;-82
2023/11/22 07:33:53;;;;;;;15.30;12.27;;;1.50;99.90;;;;;;5115558;28;20445;-82
2023/11/22 07:36:22;;;;;;;16.70;12.87;;;1.50;99.90;;;;;;5115206;28;20450;-81
2023/11/22 07:38:53;;;;;;;11.87;9.87;;;1.50;99.90;;;;;;5115796;28;20450;-81
2023/11/22 07:41:22;;;;;;;15.47;11.70;;;1.60;99.90;;;;;;5120916;28;20457;-81
2023/11/22 07:43:50;;;;;;;14.67;12.63;;;1.60;99.90;;;;;;5119194;28;20468;-81
2023/11/22 07:46:19;;;;;;;19.80;12.70;;;1.60;99.90;;;;;;5119706;28;20502;-80
2023/11/22 07:48:49;;;;;;;15.30;11.47;;;1.60;99.90;;;;;;5118566;28;20443;-81
2023/11/22 07:51:18;;;;;;;17.60;12.87;;;1.60;99.90;;;;;;5118457;28;20493;-80
2023/11/22 07:53:48;;;;;;;16.00;12.63;;;1.60;99.90;;;;;;5119733;28;20438;-80
2023/11/22 07:56:17;;;;;;;15.23;13.20;;;1.70;99.90;;;;;;5119004;28;20466;-80
2023/11/22 07:58:46;;;;;;;18.00;12.83;;;1.70;99.90;;;;;;5118195;28;20876;-79
2023/11/22 08:01:15;;;;;;;18.53;13.67;;;1.70;99.90;;;;;;5118266;28;20802;-79
2023/11/22 08:03:45;;;;;;;17.30;13.80;;;1.70;99.90;;;;;;5118314;28;21060;-80
2023/11/22 08:06:15;;;;;;;17.87;13.27;;;1.70;99.90;;;;;;5118118;28;20826;-80
2023/11/22 08:08:45;;;;;;;16.03;13.80;;;1.80;99.90;;;;;;5117783;28;20446;-80
2023/11/22 08:11:16;;;;;;;18.33;13.50;;;1.80;99.90;;;;;;5118402;28;20459;-80
2023/11/22 08:13:45;;;;;;;16.57;14.17;;;1.80;99.90;;;;;;5117806;28;20447;-80
2023/11/22 08:16:14;;;;;;;14.87;13.07;;;1.80;99.90;;;;;;5119384;28;20438;-80
2023/11/22 08:18:42;;;;;;;16.20;13.60;;;1.90;99.90;;;;;;5119337;28;20435;-81
2023/11/22 08:21:12;;;;;;;17.13;13.23;;;1.90;99.90;;;;;;5119196;28;20455;-79
2023/11/22 08:23:40;;;;;;;14.83;12.93;;;1.90;99.90;;;;;;5119486;28;20491;-79
2023/11/22 08:26:09;;;;;;;15.00;13.47;;;1.90;99.90;;;;;;5118059;28;20467;-80
2023/11/22 08:28:39;;;;;;;13.90;12.40;;;1.90;99.90;;;;;;5118468;28;20547;-80
2023/11/22 08:31:09;;;;;;;14.83;12.30;;;2.00;99.90;;;;;;5118226;28;20478;-80
2023/11/22 08:33:37;;;;;;;13.97;12.40;;;2.00;99.90;;;;;;5118291;28;20486;-79
2023/11/22 08:36:07;;;;;;;14.37;12.43;;;2.00;99.90;;;;;;5118117;28;20450;-80
2023/11/22 08:38:36;;;;;;;16.23;12.80;;;2.00;99.90;;;;;;5118752;28;20435;-80
2023/11/22 08:41:06;;;;;;;17.77;13.60;;;2.10;99.90;;;;;;5117977;28;20573;-80
2023/11/22 08:43:34;;;;;;;14.00;12.60;;;2.10;99.90;;;;;;5118122;28;20534;-80
2023/11/22 08:46:06;;;;;;;14.80;11.90;;;2.10;99.90;;;;;;5117988;28;20471;-79
2023/11/22 08:48:42;;;;;;;16.20;12.43;;;2.20;99.90;;;;;;5118585;28;20442;-80
2023/11/22 08:51:11;;;;;;;14.00;11.90;;;2.20;99.90;;;;;;5117361;28;20506;-81
2023/11/22 08:53:39;;;;;;;15.27;12.03;;;2.20;99.90;;;;;;5118567;28;20476;-80
2023/11/22 08:56:08;;;;;;;15.87;12.80;;;2.20;99.90;;;;;;5117011;28;20456;-81
2023/11/22 08:58:38;;;;;;;15.87;12.47;;;2.20;99.90;;;;;;5117242;28;20819;-80
2023/11/22 09:01:08;;;;;;;13.80;12.10;;;2.50;99.90;;;;;;5117291;28;20475;-81
2023/11/22 09:03:38;;;;;;;14.57;12.90;;;2.30;99.90;;;;;;5116807;28;20439;-80
2023/11/22 09:06:07;;;;;;;16.07;13.40;;;2.30;99.90;;;;;;5116602;28;20979;-81
2023/11/22 09:08:36;;;;;;;15.33;13.00;;;2.40;99.90;;;;;;5116906;28;20494;-80
2023/11/22 09:11:06;;;;;;;18.10;14.73;;;2.40;99.90;;;;;;5116168;28;20466;-80
2023/11/22 09:13:34;;;;;;;17.00;13.80;;;2.40;99.90;;;;;;5116229;28;20434;-82
2023/11/22 09:16:04;;;;;;;15.80;12.33;;;2.50;99.90;;;;;;5116393;28;20439;-82
2023/11/22 09:18:34;;;;;;;14.50;12.50;;;2.50;99.90;;;;;;5116294;28;20446;-83
2023/11/22 09:21:03;;;;;;;15.33;12.17;;;2.50;99.90;;;;;;5117281;28;20466;-81
2023/11/22 09:23:31;;;;;;;15.50;11.33;;;2.60;99.90;;;;;;5115731;28;20534;-82
2023/11/22 09:26:00;;;;;;;16.43;12.47;;;2.60;99.90;;;;;;5116309;28;21014;-82
2023/11/22 09:28:29;;;;;;;14.10;12.30;;;2.70;99.90;;;;;;5115867;28;20496;-81
2023/11/22 09:31:05;;;;;;;14.50;11.93;;;2.60;99.90;;;;;;5115865;28;20562;-82
2023/11/22 09:33:35;;;;;;;14.10;11.40;;;2.70;99.90;;;;;;5115874;28;20441;-81
2023/11/22 09:36:03;;;;;;;13.33;11.83;;;2.70;99.90;;;;;;5115753;28;20521;-82
2023/11/22 09:38:37;;;;;;;15.07;11.83;;;2.80;99.90;;;;;;5115876;28;20450;-81
2023/11/22 09:41:07;;;;;;;14.87;11.73;;;2.80;99.90;;;;;;5117752;28;20467;-83
2023/11/22 09:43:36;;;;;;;15.10;12.30;;;2.80;99.90;;;;;;5117189;28;20519;-83
2023/11/22 09:46:04;;;;;;;12.27;11.03;;;2.80;99.90;;;;;;5117635;28;20842;-81
2023/11/22 09:48:33;;;;;;;12.70;10.97;;;2.90;99.90;;;;;;5117588;28;20451;-83
2023/11/22 09:51:09;;;;;;;14.07;11.57;;;2.90;99.90;;;;;;5116631;28;20471;-83
2023/11/22 09:53:46;;;;;;;13.03;11.37;;;2.90;99.90;;;;;;5116333;28;20518;-82
2023/11/22 09:56:15;;;;;;;16.80;11.30;;;3.00;99.90;;;;;;5116720;28;20541;-81
2023/11/22 09:58:44;;;;;;;13.97;10.73;;;3.00;99.90;;;;;;5116839;28;20852;-82
2023/11/22 10:01:13;;;;;;;12.20;10.27;;;3.10;99.90;;;;;;5117543;28;20462;-83
2023/11/22 10:03:41;;;;;;;13.33;11.93;;;3.10;99.90;;;;;;5116066;28;20485;-83
2023/11/22 10:06:11;;;;;;;13.03;11.57;;;3.10;99.90;;;;;;5116098;28;20467;-83
2023/11/22 10:08:40;;;;;;;14.30;11.77;;;3.10;99.90;;;;;;5116146;28;20450;-82
2023/11/22 10:11:09;;;;;;;14.23;12.07;;;3.20;99.90;;;;;;5115938;28;20474;-81
2023/11/22 10:13:37;;;;;;;12.90;10.60;;;3.20;99.90;;;;;;5115277;28;20467;-81
2023/11/22 10:16:11;;;;;;;10.53;9.43;;;3.20;99.90;;;;;;5115772;28;20450;-80
2023/11/22 10:18:42;;;;;;;14.27;10.10;;;3.30;99.90;;;;;;5115718;28;20446;-82
2023/11/22 10:21:23;;;;;;;11.83;9.23;;;3.30;99.90;;;;;;5116514;27;20470;-83
2023/11/22 10:23:53;;;;;;;10.40;9.30;;;3.30;99.90;;;;;;5115535;28;20435;-82
2023/11/22 10:26:23;;;;;;;10.03;9.00;;;3.40;99.90;;;;;;5116147;28;20464;-82
2023/11/22 10:28:52;;;;;;;11.40;9.70;;;3.40;99.90;;;;;;5115339;28;20455;-83
2023/11/22 10:31:22;;;;;;;9.53;8.57;;;3.40;99.90;;;;;;5115468;28;20482;-83
2023/11/22 10:33:52;;;;;;;9.90;8.17;;;3.50;99.90;;;;;;5115436;28;20444;-83
2023/11/22 10:36:23;;;;;;;11.40;9.30;;;3.50;99.90;;;;;;5115320;28;20434;-82
2023/11/22 10:38:51;;;;;;;9.73;8.03;;;3.50;99.90;;;;;;5116502;28;20412;-82
2023/11/22 10:41:22;;;;;;;8.67;7.87;;;3.60;99.90;;;;;;5115071;28;20554;-82
2023/11/22 10:43:54;;;;;;;10.17;9.07;;;3.60;99.90;;;;;;5115054;28;20812;-81
2023/11/22 10:46:25;;;;;;;11.70;9.57;;;3.70;99.90;;;;;;5114910;28;20439;-82
2023/11/22 10:48:54;;;;;;;9.00;8.10;;;3.70;99.90;;;;;;5116334;28;20427;-82
2023/11/22 10:51:28;;;;;;;10.57;7.90;;;3.80;99.90;;;;;;5115161;28;20471;-83
2023/11/22 10:53:57;;;;;;;9.33;8.27;;;3.80;99.90;;;;;;5115102;28;20541;-83
2023/11/22 10:56:28;;;;;;;8.63;7.80;;;3.90;99.90;;;;;;5114836;28;20462;-83
2023/11/22 10:58:58;;;;;;;8.50;7.40;;;3.90;99.90;;;;;;5114343;28;20431;-82
2023/11/22 11:01:29;;;;;;;8.87;7.83;;;3.90;99.90;;;;;;5114832;28;20459;-83
2023/11/22 11:04:10;;;;;;;8.67;7.87;;;3.90;99.90;;;;;;5115174;28;20474;-82
2023/11/22 11:06:42;;;;;;;8.03;6.90;;;4.00;99.90;;;;;;5114725;28;20440;-82
2023/11/22 11:09:15;;;;;;;7.60;6.90;;;4.10;99.90;;;;;;5114589;28;20535;-83
2023/11/22 11:11:44;;;;;;;8.17;7.37;;;4.00;99.90;;;;;;5114360;28;21014;-82
2023/11/22 11:14:13;;;;;;;8.90;8.10;;;4.00;99.90;;;;;;5117725;28;20466;-83
2023/11/22 11:16:47;;;;;;;6.90;6.20;;;4.10;99.90;;;;;;5119181;28;20452;-81
2023/11/22 11:19:17;;;;;;;6.87;5.90;;;4.10;99.90;;;;;;5118954;28;20442;-82
2023/11/22 11:21:49;;;;;;;6.53;5.50;;;4.10;99.90;;;;;;5118791;28;20463;-84
2023/11/22 11:24:19;;;;;;;7.33;6.63;;;4.10;99.90;;;;;;5118573;28;20478;-81
2023/11/22 11:26:52;;;;;;;6.20;5.60;;;4.20;99.90;;;;;;5119757;28;20433;-81
2023/11/22 11:29:34;;;;;;;7.10;6.40;;;4.20;99.90;;;;;;5118661;28;20485;-84
2023/11/22 11:32:04;;;;;;;7.73;5.73;;;4.30;99.90;;;;;;5118361;28;20469;-83
2023/11/22 11:34:32;;;;;;;6.53;5.93;;;4.30;99.90;;;;;;5117881;28;20435;-82
2023/11/22 11:37:02;;;;;;;5.93;5.33;;;4.30;99.90;;;;;;5118378;28;21009;-83
2023/11/22 11:39:31;;;;;;;6.10;5.60;;;4.40;99.90;;;;;;5118180;28;20489;-82
2023/11/22 11:42:10;;;;;;;6.20;5.60;;;4.40;99.90;;;;;;5118022;28;20466;-81
2023/11/22 11:45:06;;;;;;;5.60;4.80;;;4.40;99.90;;;;;;5118064;28;20509;-82
2023/11/22 11:47:35;;;;;;;5.60;5.07;;;4.40;99.90;;;;;;5118428;28;20558;-83
2023/11/22 11:50:04;;;;;;;5.90;5.03;;;4.40;99.90;;;;;;5117694;28;20458;-81
2023/11/22 11:52:35;;;;;;;5.10;4.60;;;4.50;99.90;;;;;;5118150;28;20467;-83
2023/11/22 11:55:05;;;;;;;5.33;4.83;;;4.50;99.90;;;;;;5119436;28;20419;-82
2023/11/22 11:57:33;;;;;;;4.83;4.40;;;4.50;99.90;;;;;;5117727;28;20454;-84
2023/11/22 12:00:02;;;;;;;5.10;4.60;;;4.50;99.90;;;;;;5117682;28;20439;-83
2023/11/22 12:02:38;;;;;;;4.47;4.00;;;4.60;99.90;;;;;;5119665;28;20470;-82
2023/11/22 12:05:08;;;;;;;4.43;4.00;;;4.60;99.90;;;;;;5117856;28;20496;-82
2023/11/22 12:07:39;;;;;;;4.30;3.90;;;4.60;99.90;;;;;;5117710;28;20910;-82
2023/11/22 12:10:08;;;;;;;4.47;4.00;;;4.60;99.90;;;;;;5119170;28;20507;-82
2023/11/22 12:12:36;;;;;;;4.57;4.17;;;4.60;99.90;;;;;;5117474;28;20470;-82
2023/11/22 12:15:07;;;;;;;5.37;4.07;;;4.60;99.90;;;;;;5116987;28;20543;-83
2023/11/22 12:17:35;;;;;;;4.50;4.10;;;4.70;99.90;;;;;;5117218;28;20538;-83
2023/11/22 12:20:11;;;;;;;5.00;4.30;;;4.70;99.90;;;;;;5117181;28;20443;-82
2023/11/22 12:22:42;;;;;;;3.93;3.53;;;4.80;99.90;;;;;;5117056;28;20502;-81
2023/11/22 12:25:11;;;;;;;5.07;4.57;;;4.80;99.90;;;;;;5116448;28;20440;-83
2023/11/22 12:27:41;;;;;;;3.43;3.07;;;4.80;99.90;;;;;;5118318;28;20467;-84
2023/11/22 12:30:11;;;;;;;3.17;2.97;;;4.90;99.90;;;;;;5117331;28;20440;-82
2023/11/22 12:32:43;;;;;;;2.73;2.40;;;4.90;99.90;;;;;;5116838;28;20482;-82
2023/11/22 12:35:11;;;;;;;2.80;2.40;;;4.90;99.90;;;;;;5116552;28;20451;-84
2023/11/22 12:37:41;;;;;;;2.73;1.90;;;4.90;99.90;;;;;;5116846;28;20443;-83
2023/11/22 12:40:12;;;;;;;2.77;2.37;;;4.90;99.90;;;;;;5117161;28;20439;-83
2023/11/22 12:42:50;;;;;;;3.50;2.27;;;4.90;99.90;;;;;;5116721;28;20467;-82
2023/11/22 12:45:23;;;;;;;2.80;2.47;;;4.90;99.90;;;;;;5118287;28;20412;-83
2023/11/22 12:47:53;;;;;;;3.97;2.33;;;5.00;99.90;;;;;;5116618;28;20964;-83
2023/11/22 12:50:31;;;;;;;3.07;2.67;;;4.80;99.90;;;;;;5116122;28;20556;-84
2023/11/22 12:53:10;;;;;;;3.60;3.27;;;4.90;99.90;;;;;;5116334;28;20478;-84